Time;durP1;ratioP1;P1;durP2;ratioP2;P2;SDS_P1;SDS_P2;PMS_P1;PMS_P2;Temp;Humidity;BMP_temperature;BMP_pressure;BME280_temperature;BME280_humidity;BME280_pressure;Samples;Min_cycle;Max_cycle;Signal;HPM_P1;HPM_P2
2023/09/04 00:02:24;;;;;;;1.63;0.80;;;;;;;21.45;66.61;99754.91;10500419;27;96933;-80
2023/09/04 00:07:29;;;;;;;1.60;0.70;;;;;;;21.40;66.61;99749.13;10498722;27;97557;-81
2023/09/04 00:12:33;;;;;;;0.77;0.50;;;;;;;21.38;66.83;99755.63;10499978;27;96583;-81
2023/09/04 00:17:36;;;;;;;3.03;0.60;;;;;;;21.41;66.82;99760.69;10498981;27;99211;-81
2023/09/04 00:22:41;;;;;;;1.48;0.75;;;;;;;21.43;66.89;99780.97;10499563;27;96639;-81
2023/09/04 00:27:44;;;;;;;1.85;0.77;;;;;;;21.45;66.87;99789.69;10499479;27;96744;-80
2023/09/04 00:32:48;;;;;;;0.85;0.60;;;;;;;21.43;66.97;99793.53;10499318;27;96767;-80
2023/09/04 00:37:52;;;;;;;3.40;0.90;;;;;;;21.43;66.95;99799.69;10499015;27;96612;-81
2023/09/04 00:42:56;;;;;;;0.85;0.60;;;;;;;21.39;67.39;99779.56;10499454;27;97570;-81
2023/09/04 00:47:59;;;;;;;0.93;0.50;;;;;;;21.47;67.19;99770.81;10498457;27;97042;-81
2023/09/04 00:53:07;;;;;;;1.17;0.63;;;;;;;21.41;67.48;99756.16;10498461;27;96817;-80
2023/09/04 00:58:11;;;;;;;1.73;0.50;;;;;;;21.44;67.09;99750.53;10506139;27;96888;-80
2023/09/04 01:03:15;;;;;;;1.30;0.68;;;;;;;21.47;67.32;99765.47;10540702;27;96811;-81
2023/09/04 01:08:20;;;;;;;1.67;0.70;;;;;;;21.47;66.98;99766.31;10540739;27;96600;-81
2023/09/04 01:13:29;;;;;;;0.80;0.50;;;;;;;21.47;66.96;99771.66;10540040;27;96492;-81
2023/09/04 01:18:34;;;;;;;0.98;0.68;;;;;;;21.47;66.85;99773.50;10538912;27;97392;-81
2023/09/04 01:23:39;;;;;;;1.17;0.65;;;;;;;21.51;66.55;99766.88;10501493;27;96892;-80
2023/09/04 01:28:54;;;;;;;1.15;0.65;;;;;;;21.55;66.55;99767.44;10497505;27;96752;-80
2023/09/04 01:34:02;;;;;;;0.95;0.60;;;;;;;21.55;66.73;99768.28;10484030;27;97117;-81
2023/09/04 01:39:09;;;;;;;1.10;0.73;;;;;;;21.52;66.29;99752.50;10454776;27;96662;-79
2023/09/04 01:44:14;;;;;;;1.02;0.68;;;;;;;21.52;66.20;99761.38;10454914;27;97053;-80
2023/09/04 01:49:17;;;;;;;2.67;0.73;;;;;;;21.57;66.04;99746.72;10464921;27;98625;-81
2023/09/04 01:54:22;;;;;;;1.95;0.82;;;;;;;21.47;66.27;99752.94;10496953;27;96670;-81
2023/09/04 01:59:25;;;;;;;1.55;0.77;;;;;;;21.47;66.07;99747.56;10496434;27;96719;-81
2023/09/04 02:04:31;;;;;;;1.90;0.47;;;;;;;21.43;66.18;99769.44;10496770;27;97469;-81
2023/09/04 02:09:36;;;;;;;1.48;0.70;;;;;;;21.38;66.26;99787.75;10538478;27;96681;-81
2023/09/04 02:14:39;;;;;;;1.48;0.73;;;;;;;21.38;66.04;99780.53;10523710;27;96801;-81
2023/09/04 02:19:42;;;;;;;1.23;0.52;;;;;;;21.33;66.27;99787.28;10516043;27;97265;-81
2023/09/04 02:24:47;;;;;;;1.23;0.45;;;;;;;21.31;66.30;99808.03;10504993;27;97060;-80
2023/09/04 02:29:50;;;;;;;0.80;0.55;;;;;;;21.27;66.36;99801.25;10515082;27;96800;-80
2023/09/04 02:34:53;;;;;;;1.63;0.70;;;;;;;21.26;66.46;99780.81;10545824;27;97355;-81
2023/09/04 02:39:58;;;;;;;1.08;0.80;;;;;;;21.21;66.64;99778.56;10535403;27;97594;-80
2023/09/04 02:45:01;;;;;;;1.85;0.57;;;;;;;21.00;67.30;99763.59;10502732;27;96750;-80
2023/09/04 02:50:06;;;;;;;2.92;0.80;;;;;;;20.92;67.48;99768.75;10501642;27;97037;-80
2023/09/04 02:55:11;;;;;;;0.88;0.52;;;;;;;20.86;67.60;99783.50;10502447;27;96979;-80
2023/09/04 03:00:15;;;;;;;1.95;1.08;;;;;;;20.85;67.73;99776.50;10502707;27;96780;-81
2023/09/04 03:05:18;;;;;;;1.40;0.80;;;;;;;20.86;67.53;99799.56;10502243;27;96662;-80
2023/09/04 03:10:23;;;;;;;1.40;0.63;;;;;;;20.77;68.52;99796.88;10501751;27;96818;-80
2023/09/04 03:15:26;;;;;;;2.67;0.60;;;;;;;20.80;68.85;99780.56;10523445;27;96605;-81
2023/09/04 03:20:33;;;;;;;1.60;0.80;;;;;;;20.79;68.59;99742.25;10543706;27;96645;-80
2023/09/04 03:25:40;;;;;;;1.40;0.70;;;;;;;20.76;68.76;99734.50;10543782;27;96928;-80
2023/09/04 03:30:45;;;;;;;2.97;0.70;;;;;;;20.76;68.70;99744.34;10542065;27;96589;-80
2023/09/04 03:35:48;;;;;;;2.55;1.00;;;;;;;20.70;68.59;99727.06;10543887;27;97224;-81
2023/09/04 03:40:53;;;;;;;3.53;1.17;;;;;;;20.72;68.42;99740.28;10543472;27;96773;-80
2023/09/04 03:45:56;;;;;;;2.38;0.77;;;;;;;20.55;68.75;99738.28;10542985;27;96608;-80
2023/09/04 03:51:00;;;;;;;1.48;1.00;;;;;;;20.38;68.81;99753.97;10541650;27;97499;-80
2023/09/04 03:56:06;;;;;;;1.45;0.65;;;;;;;20.45;68.67;99745.38;10543000;27;96839;-80
2023/09/04 04:01:09;;;;;;;2.95;0.80;;;;;;;20.56;68.39;99742.63;10542909;27;96622;-81
2023/09/04 04:06:14;;;;;;;0.80;0.63;;;;;;;20.54;68.98;99740.09;10530881;27;97136;-80
2023/09/04 04:11:19;;;;;;;1.00;0.60;;;;;;;20.56;68.98;99743.47;10499903;27;97720;-80
2023/09/04 04:16:23;;;;;;;3.17;0.80;;;;;;;20.58;69.02;99733.50;10499376;27;97351;-80
2023/09/04 04:21:26;;;;;;;1.02;0.70;;;;;;;20.58;69.25;99724.63;10499167;27;96860;-80
2023/09/04 04:26:31;;;;;;;1.05;0.80;;;;;;;20.53;69.41;99729.53;10499653;27;97418;-80
2023/09/04 04:31:34;;;;;;;1.92;0.80;;;;;;;20.50;69.30;99730.63;10497821;27;96713;-80
2023/09/04 04:36:37;;;;;;;0.77;0.60;;;;;;;20.48;69.50;99715.72;10465821;27;97418;-80
2023/09/04 04:41:42;;;;;;;1.02;0.65;;;;;;;20.31;70.57;99712.72;10488599;27;96832;-80
2023/09/04 04:46:47;;;;;;;1.02;0.65;;;;;;;20.33;70.15;99708.09;10498340;27;96877;-81
2023/09/04 04:51:51;;;;;;;1.30;0.68;;;;;;;20.30;70.80;99731.56;10498663;27;96757;-80
2023/09/04 04:56:55;;;;;;;2.50;0.68;;;;;;;20.41;70.46;99741.31;10499186;27;96851;-81
2023/09/04 05:02:00;;;;;;;1.50;0.68;;;;;;;20.41;71.04;99735.97;10498370;27;97317;-80
2023/09/04 05:07:03;;;;;;;;;;;;;;;20.45;71.30;99734.69;10498342;27;96688;-80
2023/09/04 05:12:08;;;;;;;0.73;0.50;;;;;;;20.49;70.77;99738.78;10497402;27;96676;-80
2023/09/04 05:17:11;;;;;;;1.30;0.80;;;;;;;20.48;70.57;99734.44;10497665;27;97086;-80
2023/09/04 05:22:14;;;;;;;0.52;0.47;;;;;;;20.48;70.29;99732.59;10497658;27;96580;-81
2023/09/04 05:27:19;;;;;;;1.77;0.55;;;;;;;20.49;70.43;99730.78;10497765;27;97778;-80
2023/09/04 05:32:23;;;;;;;1.58;0.68;;;;;;;20.49;69.93;99736.97;10496940;27;97817;-80
2023/09/04 05:37:26;;;;;;;1.23;0.60;;;;;;;20.56;69.68;99729.25;10497210;27;96526;-81
2023/09/04 05:42:31;;;;;;;1.75;0.55;;;;;;;20.52;70.05;99734.03;10496541;27;97231;-80
2023/09/04 05:47:34;;;;;;;3.17;0.80;;;;;;;20.47;70.60;99735.41;10497694;27;96666;-81
2023/09/04 05:52:37;;;;;;;0.70;0.50;;;;;;;20.44;70.97;99741.88;10496812;27;97789;-80
2023/09/04 05:57:42;;;;;;;2.42;1.05;;;;;;;20.42;70.96;99759.03;10496613;27;96682;-80
2023/09/04 06:02:46;;;;;;;0.90;0.50;;;;;;;20.43;70.72;99742.84;10495563;27;96931;-81
2023/09/04 06:07:50;;;;;;;1.95;0.93;;;;;;;20.43;70.89;99758.06;10496767;27;96723;-79
2023/09/04 06:12:55;;;;;;;2.17;0.90;;;;;;;20.45;70.46;99761.41;10496418;27;96852;-81
2023/09/04 06:17:58;;;;;;;0.85;0.70;;;;;;;20.48;70.38;99770.03;10495745;27;96574;-80
2023/09/04 06:23:03;;;;;;;1.15;0.60;;;;;;;20.54;70.09;99779.34;10496713;27;97049;-81
2023/09/04 06:28:08;;;;;;;1.58;0.60;;;;;;;20.60;69.91;99776.97;10495888;27;96552;-80
2023/09/04 06:33:11;;;;;;;1.70;0.90;;;;;;;20.69;69.26;99772.66;10495277;27;97461;-80
2023/09/04 06:38:14;;;;;;;2.40;0.70;;;;;;;20.94;68.25;99772.16;10495813;27;97390;-82
2023/09/04 06:43:19;;;;;;;1.05;0.75;;;;;;;21.77;66.59;99769.81;10495642;27;97586;-80
2023/09/04 06:48:23;;;;;;;1.42;0.80;;;;;;;22.28;64.63;99778.34;10494880;27;97330;-80
2023/09/04 06:53:27;;;;;;;2.20;0.80;;;;;;;22.53;62.80;99781.22;10494356;27;96681;-81
2023/09/04 06:58:31;;;;;;;1.17;0.60;;;;;;;23.34;61.73;99784.84;10501420;27;96997;-81
2023/09/04 07:03:35;;;;;;;0.98;0.60;;;;;;;23.41;60.00;99775.19;10502255;27;96646;-81
2023/09/04 07:08:38;;;;;;;1.40;0.60;;;;;;;23.30;60.73;99784.31;10502343;27;96922;-80
2023/09/04 07:13:43;;;;;;;1.27;0.60;;;;;;;22.81;61.18;99778.56;10502400;27;96875;-81
2023/09/04 07:18:46;;;;;;;0.77;0.38;;;;;;;22.28;61.92;99768.44;10501486;27;96820;-81
2023/09/04 07:23:49;;;;;;;1.57;0.50;;;;;;;22.13;62.29;99769.91;10501752;27;96619;-80
2023/09/04 07:28:54;;;;;;;0.87;0.60;;;;;;;21.92;63.00;99777.25;10501560;27;96646;-80
2023/09/04 07:33:59;;;;;;;1.52;0.65;;;;;;;22.10;62.63;99783.63;10493528;27;97584;-81
2023/09/04 07:39:02;;;;;;;2.05;0.75;;;;;;;22.75;61.20;99787.19;10458422;27;96990;-82
2023/09/04 07:44:07;;;;;;;0.40;0.20;;;;;;;23.61;59.50;99785.66;10457473;27;96637;-81
2023/09/04 07:49:12;;;;;;;0.90;0.68;;;;;;;24.10;57.68;99805.72;10494244;27;97331;-81
2023/09/04 07:54:15;;;;;;;1.20;0.50;;;;;;;24.97;55.93;99781.31;10500188;27;96860;-81
2023/09/04 07:59:20;;;;;;;1.23;0.47;;;;;;;24.62;56.03;99793.97;10500416;27;96586;-82
2023/09/04 08:04:25;;;;;;;1.63;0.65;;;;;;;25.03;54.76;99805.78;10500668;27;96776;-82
2023/09/04 08:09:29;;;;;;;0.43;0.43;;;;;;;26.06;51.89;99807.97;10499726;27;96557;-82
2023/09/04 08:14:36;;;;;;;0.68;0.47;;;;;;;27.40;48.58;99809.59;10499868;27;96641;-82
2023/09/04 08:19:39;;;;;;;1.45;0.52;;;;;;;27.97;47.64;99800.09;10500859;27;96641;-82
2023/09/04 08:24:43;;;;;;;1.80;0.70;;;;;;;28.79;46.24;99812.63;10499456;27;97508;-82
2023/09/04 08:29:47;;;;;;;;;;;;;;;29.21;43.85;99803.00;10499847;27;96877;-82
2023/09/04 08:34:51;;;;;;;1.25;0.40;;;;;;;30.02;42.57;99806.16;10498538;27;97219;-82
2023/09/04 08:39:54;;;;;;;1.58;0.70;;;;;;;30.31;42.16;99810.59;10532256;27;96628;-82
2023/09/04 08:44:59;;;;;;;1.30;0.60;;;;;;;30.75;39.16;99819.31;10541304;27;96557;-82
2023/09/04 08:50:03;;;;;;;1.08;0.50;;;;;;;30.11;38.42;99814.00;10540706;27;97772;-82
2023/09/04 08:55:07;;;;;;;0.50;0.50;;;;;;;29.87;38.99;99821.66;10540259;27;96745;-82
2023/09/04 09:00:13;;;;;;;1.00;0.65;;;;;;;30.76;37.28;99797.38;10541104;27;96579;-82
2023/09/04 09:05:18;;;;;;;0.40;0.20;;;;;;;31.66;36.01;99805.25;10528803;27;97675;-82
2023/09/04 09:10:23;;;;;;;0.80;0.50;;;;;;;31.32;36.03;99812.47;10499240;27;96910;-81
2023/09/04 09:15:31;;;;;;;0.90;0.70;;;;;;;31.47;34.65;99814.19;10497753;27;96897;-82
2023/09/04 09:20:38;;;;;;;1.33;0.28;;;;;;;30.62;34.07;99806.44;10465556;22;97307;-83
2023/09/04 09:25:42;;;;;;;0.50;0.40;;;;;;;30.82;33.41;99804.69;10454262;27;96616;-82
2023/09/04 09:30:47;;;;;;;0.65;0.50;;;;;;;30.63;33.03;99816.25;10423174;27;96773;-82
2023/09/04 09:35:54;;;;;;;0.55;0.50;;;;;;;30.83;33.21;99813.69;10412863;28;96537;-81
2023/09/04 09:40:58;;;;;;;0.68;0.55;;;;;;;31.23;32.65;99816.38;10413188;28;97403;-82
2023/09/04 09:46:03;;;;;;;1.48;0.50;;;;;;;30.43;33.11;99814.44;10413694;27;96907;-82
2023/09/04 09:51:07;;;;;;;0.57;0.40;;;;;;;30.50;32.75;99804.47;10412753;28;96757;-82
2023/09/04 09:56:13;;;;;;;1.02;0.50;;;;;;;30.56;32.53;99806.41;10412617;28;96695;-81
2023/09/04 10:01:19;;;;;;;0.50;0.40;;;;;;;31.46;31.49;99788.88;10413838;27;97585;-82
2023/09/04 10:06:24;;;;;;;0.55;0.30;;;;;;;31.87;31.67;99799.66;10412241;28;97728;-82
2023/09/04 10:11:32;;;;;;;0.68;0.50;;;;;;;32.99;30.55;99798.53;10411815;28;97090;-83
2023/09/04 10:16:41;;;;;;;0.70;0.50;;;;;;;31.38;31.93;99794.50;10410650;28;96732;-82
2023/09/04 10:21:53;;;;;;;0.60;0.30;;;;;;;30.04;33.97;99791.34;10412213;27;96795;-82
2023/09/04 10:27:02;;;;;;;0.50;0.20;;;;;;;28.29;35.55;99807.06;10411759;28;96670;-82
2023/09/04 10:32:08;;;;;;;1.05;0.35;;;;;;;27.69;36.37;99807.06;10416723;27;96667;-81
2023/09/04 10:37:12;;;;;;;0.38;0.28;;;;;;;27.41;36.91;99786.09;10435932;27;97578;-82
2023/09/04 10:42:15;;;;;;;0.60;0.25;;;;;;;27.04;37.11;99796.81;10460687;27;96839;-82
2023/09/04 10:47:21;;;;;;;0.68;0.38;;;;;;;26.81;37.27;99791.31;10460720;27;96905;-81
2023/09/04 10:52:41;;;;;;;0.80;0.40;;;;;;;26.30;37.86;99802.56;10460266;27;96779;-82
2023/09/04 10:57:56;;;;;;;0.75;0.45;;;;;;;26.16;37.95;99801.38;10460035;27;96805;-82
2023/09/04 11:03:14;;;;;;;;;;;;;;;25.88;39.00;99814.38;10460587;27;96796;-81
2023/09/04 11:08:29;;;;;;;1.27;0.60;;;;;;;26.28;38.68;99799.19;10421645;27;98979;-81
2023/09/04 11:13:33;;;;;;;1.00;0.52;;;;;;;25.99;39.11;99791.63;10456138;27;96756;-81
2023/09/04 11:18:38;;;;;;;;;;;;;;;25.81;40.20;99797.19;10459288;27;97257;-81
2023/09/04 11:23:42;;;;;;;1.02;0.50;;;;;;;25.87;39.68;99785.75;10459770;27;96891;-81
2023/09/04 11:28:46;;;;;;;1.58;0.30;;;;;;;25.46;39.83;99781.31;10458122;27;96772;-81
2023/09/04 11:33:51;;;;;;;;;;;;;;;25.47;40.26;99768.66;10459732;27;96908;-81
2023/09/04 11:39:13;;;;;;;0.68;0.30;;;;;;;25.34;40.32;99784.50;10458883;27;96809;-80
2023/09/04 11:44:16;;;;;;;1.70;0.63;;;;;;;25.29;41.08;99779.59;10457764;27;96863;-81
2023/09/04 11:49:21;;;;;;;1.37;0.63;;;;;;;25.40;40.76;99775.72;10458253;27;97042;-81
2023/09/04 11:54:33;;;;;;;0.68;0.30;;;;;;;25.20;41.21;99771.66;10458815;27;96808;-81
2023/09/04 11:59:37;;;;;;;0.80;0.47;;;;;;;25.43;40.41;99778.13;10456895;27;97750;-81
2023/09/04 12:04:42;;;;;;;1.10;0.47;;;;;;;25.74;40.52;99784.56;10450314;27;96647;-81
2023/09/04 12:09:46;;;;;;;0.38;0.20;;;;;;;26.26;39.80;99760.75;10416039;28;97188;-81
2023/09/04 12:14:49;;;;;;;0.43;0.40;;;;;;;25.94;40.61;99758.94;10415731;28;97377;-81
2023/09/04 12:19:54;;;;;;;0.43;0.33;;;;;;;25.56;40.12;99744.28;10439229;27;97187;-81
2023/09/04 12:25:04;;;;;;;0.73;0.50;;;;;;;25.41;40.55;99767.50;10457093;27;97499;-81
2023/09/04 12:30:09;;;;;;;0.50;0.30;;;;;;;25.43;40.77;99791.59;10457421;27;96969;-81
2023/09/04 12:35:14;;;;;;;1.33;0.60;;;;;;;25.30;40.98;99807.38;10456925;27;96585;-81
2023/09/04 12:40:19;;;;;;;0.60;0.40;;;;;;;25.15;41.30;99787.47;10457035;27;97847;-80
2023/09/04 12:45:22;;;;;;;1.38;0.65;;;;;;;26.00;40.21;99779.00;10457160;27;97610;-82
2023/09/04 12:50:27;;;;;;;0.50;0.30;;;;;;;26.39;40.49;99737.63;10455252;27;96845;-80
2023/09/04 12:55:31;;;;;;;1.02;0.32;;;;;;;26.50;39.91;99736.44;10454253;27;96788;-81
2023/09/04 13:00:35;;;;;;;0.73;0.43;;;;;;;26.60;39.13;99718.16;10456387;27;96711;-82
2023/09/04 13:05:40;;;;;;;1.48;0.40;;;;;;;26.13;40.32;99730.75;10441405;27;97939;-81
2023/09/04 13:10:44;;;;;;;0.65;0.30;;;;;;;26.12;39.42;99729.09;10414528;27;96842;-81
2023/09/04 13:15:47;;;;;;;1.40;0.40;;;;;;;26.48;39.54;99723.09;10413396;28;96957;-81
2023/09/04 13:20:52;;;;;;;0.65;0.40;;;;;;;26.49;39.49;99727.47;10413247;28;97791;-81
2023/09/04 13:25:55;;;;;;;0.43;0.40;;;;;;;26.16;39.71;99719.66;10414711;27;96831;-81
2023/09/04 13:31:00;;;;;;;0.82;0.60;;;;;;;25.78;39.73;99759.78;10413530;28;96627;-81
2023/09/04 13:36:06;;;;;;;0.73;0.30;;;;;;;25.27;41.41;99778.94;10411492;28;96613;-81
2023/09/04 13:41:10;;;;;;;0.70;0.30;;;;;;;25.15;42.31;99771.31;10412157;28;96669;-81
2023/09/04 13:46:15;;;;;;;0.68;0.47;;;;;;;25.46;42.07;99758.91;10448470;27;96789;-81
2023/09/04 13:51:21;;;;;;;0.93;0.30;;;;;;;25.55;41.77;99747.13;10454615;27;96813;-81
2023/09/04 13:56:24;;;;;;;1.13;0.30;;;;;;;25.63;41.26;99741.75;10454319;27;97509;-81
2023/09/04 14:01:27;;;;;;;1.33;0.40;;;;;;;25.55;42.14;99752.53;10453845;27;97005;-81
2023/09/04 14:06:32;;;;;;;1.42;0.57;;;;;;;25.51;42.16;99783.50;10436509;27;97836;-81
2023/09/04 14:11:36;;;;;;;0.70;0.40;;;;;;;25.49;42.66;99816.00;10420398;28;96826;-81
2023/09/04 14:16:39;;;;;;;0.60;0.37;;;;;;;24.39;48.15;99849.31;10420435;27;96769;-81
2023/09/04 14:21:44;;;;;;;1.23;0.50;;;;;;;24.19;50.84;99852.31;10419550;28;97687;-81
2023/09/04 14:26:47;;;;;;;0.73;0.40;;;;;;;24.04;52.39;99868.19;10418987;28;96725;-80
2023/09/04 14:31:51;;;;;;;2.27;0.67;;;;;;;23.45;53.90;99882.19;10418083;28;97268;-81
2023/09/04 14:36:55;;;;;;;0.50;0.40;;;;;;;23.14;55.66;99851.28;10419244;27;96787;-80
2023/09/04 14:42:19;;;;;;;0.95;0.60;;;;;;;22.95;56.88;99834.41;10418253;28;97082;-80
2023/09/04 14:47:23;;;;;;;2.15;0.60;;;;;;;22.94;58.45;99819.31;10418382;28;96996;-81
2023/09/04 14:52:29;;;;;;;0.47;0.47;;;;;;;22.57;59.91;99841.59;10419810;27;96831;-81
2023/09/04 14:57:32;;;;;;;0.88;0.50;;;;;;;22.55;59.90;99838.25;10418448;28;96601;-81
2023/09/04 15:02:36;;;;;;;1.17;0.80;;;;;;;22.58;60.61;99858.53;10418300;28;96955;-81
2023/09/04 15:07:43;;;;;;;0.70;0.50;;;;;;;22.72;59.55;99839.28;10418878;27;96911;-81
2023/09/04 15:12:47;;;;;;;1.08;0.50;;;;;;;22.73;59.84;99837.47;10417699;28;96697;-81
2023/09/04 15:17:51;;;;;;;1.52;0.60;;;;;;;22.74;60.03;99839.13;10415948;27;97652;-81
2023/09/04 15:22:56;;;;;;;0.90;0.50;;;;;;;22.74;59.86;99834.63;10416724;28;96599;-81
2023/09/04 15:27:59;;;;;;;1.45;0.50;;;;;;;22.83;59.24;99839.16;10417720;27;96795;-80
2023/09/04 15:33:03;;;;;;;1.05;0.63;;;;;;;22.98;59.08;99831.44;10417071;28;97770;-79
2023/09/04 15:38:08;;;;;;;0.93;0.57;;;;;;;22.87;59.74;99828.97;10416803;28;96702;-80
2023/09/04 15:43:12;;;;;;;1.25;0.70;;;;;;;22.84;60.12;99840.81;10417540;27;97906;-80
2023/09/04 15:48:16;;;;;;;1.07;0.40;;;;;;;22.97;58.85;99829.75;10416719;28;97139;-81
2023/09/04 15:53:22;;;;;;;;;;;;;;;22.82;60.13;99834.75;10417062;28;96997;-80
2023/09/04 15:58:26;;;;;;;1.08;0.60;;;;;;;22.82;60.34;99821.34;10417895;27;96696;-81
2023/09/04 16:03:30;;;;;;;0.93;0.50;;;;;;;22.74;60.08;99840.00;10416302;28;97296;-81
2023/09/04 16:08:35;;;;;;;0.97;0.70;;;;;;;22.50;61.36;99819.06;10415948;28;96566;-81
2023/09/04 16:13:39;;;;;;;1.27;0.43;;;;;;;22.49;61.11;99817.34;10414702;28;96691;-80
2023/09/04 16:18:42;;;;;;;2.17;0.68;;;;;;;22.69;60.44;99814.59;10446472;27;96608;-81
2023/09/04 16:23:46;;;;;;;1.80;1.05;;;;;;;22.75;60.13;99797.94;10457370;27;96816;-80
2023/09/04 16:28:51;;;;;;;1.73;0.75;;;;;;;22.76;60.17;99789.72;10456625;27;96747;-81
2023/09/04 16:33:54;;;;;;;1.98;0.95;;;;;;;22.89;59.22;99792.09;10456508;27;97082;-81
2023/09/04 16:38:59;;;;;;;1.50;0.73;;;;;;;22.84;59.54;99781.78;10420196;27;97200;-81
2023/09/04 16:44:02;;;;;;;1.42;0.63;;;;;;;22.85;59.25;99790.69;10414755;28;96616;-81
2023/09/04 16:49:07;;;;;;;2.53;1.20;;;;;;;22.80;60.12;99788.44;10416487;27;96842;-81
2023/09/04 16:54:13;;;;;;;0.98;0.70;;;;;;;22.96;60.17;99775.22;10456563;27;97484;-81
2023/09/04 16:59:16;;;;;;;0.63;0.60;;;;;;;22.75;59.35;99765.72;10456285;27;97762;-80
2023/09/04 17:04:20;;;;;;;0.70;0.47;;;;;;;22.74;59.54;99782.81;10450881;27;96758;-81
2023/09/04 17:09:25;;;;;;;1.27;0.80;;;;;;;22.76;59.13;99762.03;10442725;27;97779;-81
2023/09/04 17:14:29;;;;;;;3.50;0.80;;;;;;;22.77;59.06;99769.09;10455628;27;96756;-81
2023/09/04 17:19:32;;;;;;;2.60;1.05;;;;;;;22.83;58.82;99765.84;10455391;27;97738;-81
2023/09/04 17:24:37;;;;;;;1.55;1.10;;;;;;;22.87;58.58;99777.97;10454396;27;97143;-80
2023/09/04 17:29:40;;;;;;;2.78;1.17;;;;;;;22.90;58.38;99767.78;10455467;27;97169;-81
2023/09/04 17:34:43;;;;;;;2.90;0.80;;;;;;;22.93;58.37;99775.53;10455317;27;97548;-81
2023/09/04 17:39:48;;;;;;;1.33;0.68;;;;;;;22.81;58.75;99752.59;10455079;27;97543;-81
2023/09/04 17:44:51;;;;;;;0.93;0.70;;;;;;;22.66;59.69;99731.75;10454096;27;97101;-80
2023/09/04 17:49:55;;;;;;;2.10;0.82;;;;;;;22.43;60.70;99739.34;10454658;27;96708;-80
2023/09/04 17:54:59;;;;;;;1.10;0.70;;;;;;;22.41;60.97;99720.72;10453489;27;96709;-80
2023/09/04 18:00:06;;;;;;;1.98;1.10;;;;;;;22.36;61.01;99728.38;10453397;27;97781;-80
2023/09/04 18:05:10;;;;;;;1.67;0.60;;;;;;;22.35;60.66;99733.88;10443623;27;96794;-80
2023/09/04 18:10:15;;;;;;;1.38;0.77;;;;;;;22.37;60.60;99726.50;10412407;28;97149;-80
2023/09/04 18:15:20;;;;;;;1.77;0.80;;;;;;;22.39;60.60;99736.09;10412760;27;97447;-81
2023/09/04 18:20:24;;;;;;;1.67;1.08;;;;;;;22.29;61.07;99731.78;10411080;28;98394;-81
2023/09/04 18:25:28;;;;;;;1.55;0.70;;;;;;;22.34;60.86;99726.81;10412086;28;97148;-80
2023/09/04 18:30:34;;;;;;;1.40;0.80;;;;;;;22.36;60.53;99730.19;10412124;28;96550;-81
2023/09/04 18:35:38;;;;;;;1.23;0.70;;;;;;;22.31;60.51;99717.25;10411783;27;96857;-80
2023/09/04 18:40:42;;;;;;;1.08;0.63;;;;;;;22.34;60.72;99702.69;10411718;28;96672;-81
2023/09/04 18:45:47;;;;;;;1.15;0.70;;;;;;;22.37;60.34;99695.19;10410200;28;97259;-80
2023/09/04 18:50:50;;;;;;;1.13;0.60;;;;;;;22.45;59.74;99689.09;10413786;27;96813;-81
2023/09/04 18:55:56;;;;;;;1.30;0.55;;;;;;;22.51;59.11;99685.81;10418391;28;96694;-80
2023/09/04 19:01:01;;;;;;;1.83;0.70;;;;;;;22.57;58.77;99704.00;10418230;28;97661;-81
2023/09/04 19:06:06;;;;;;;1.65;0.85;;;;;;;22.53;59.24;99699.91;10427531;27;96698;-81
2023/09/04 19:11:11;;;;;;;0.77;0.60;;;;;;;22.56;59.41;99691.56;10459894;27;96893;-81
2023/09/04 19:16:14;;;;;;;0.50;0.50;;;;;;;22.59;58.71;99694.78;10459450;27;96728;-81
2023/09/04 19:21:19;;;;;;;1.03;0.50;;;;;;;22.62;58.70;99709.75;10460118;27;96734;-80
2023/09/04 19:26:23;;;;;;;1.15;0.60;;;;;;;22.69;58.57;99708.16;10458389;27;96687;-80
2023/09/04 19:31:27;;;;;;;0.93;0.73;;;;;;;22.75;58.14;99712.09;10459061;27;96585;-81
2023/09/04 19:36:31;;;;;;;1.40;0.70;;;;;;;22.77;57.88;99723.47;10446813;27;96725;-81
2023/09/04 19:41:35;;;;;;;0.90;0.40;;;;;;;22.82;57.91;99719.38;10438855;27;96581;-81
2023/09/04 19:46:41;;;;;;;1.90;0.65;;;;;;;22.82;58.16;99718.56;10458571;27;96718;-81
2023/09/04 19:51:45;;;;;;;3.00;0.90;;;;;;;22.81;58.10;99728.44;10458598;27;96657;-80
2023/09/04 19:56:49;;;;;;;0.85;0.70;;;;;;;22.80;58.10;99742.00;10457311;27;96719;-82
2023/09/04 20:01:53;;;;;;;0.90;0.60;;;;;;;22.88;57.54;99734.03;10457844;27;96749;-81
2023/09/04 20:06:57;;;;;;;1.20;0.70;;;;;;;22.89;57.27;99744.63;10432045;27;97720;-81
2023/09/04 20:12:02;;;;;;;2.25;0.50;;;;;;;23.01;56.52;99756.00;10416717;28;96668;-81
2023/09/04 20:17:06;;;;;;;1.92;0.63;;;;;;;22.97;56.73;99768.88;10415262;27;97539;-81
2023/09/04 20:22:10;;;;;;;1.00;0.60;;;;;;;22.97;56.71;99787.66;10415690;28;96675;-81
2023/09/04 20:27:14;;;;;;;1.08;0.47;;;;;;;23.00;56.84;99792.72;10414687;28;96943;-81
2023/09/04 20:32:19;;;;;;;1.25;0.55;;;;;;;23.08;56.15;99808.91;10415770;27;96815;-80
2023/09/04 20:37:23;;;;;;;0.82;0.50;;;;;;;23.11;56.24;99811.28;10415175;28;96828;-80
2023/09/04 20:42:29;;;;;;;0.65;0.50;;;;;;;23.12;56.17;99820.19;10414927;28;96752;-81
2023/09/04 20:47:34;;;;;;;0.77;0.60;;;;;;;23.10;56.05;99814.97;10415038;27;96594;-80
2023/09/04 20:52:38;;;;;;;0.47;0.47;;;;;;;23.07;56.81;99817.13;10414459;28;96679;-81
2023/09/04 20:57:43;;;;;;;2.40;0.60;;;;;;;23.01;56.58;99798.94;10414274;28;96685;-81
2023/09/04 21:02:46;;;;;;;0.50;0.50;;;;;;;23.10;56.09;99809.63;10415205;28;96634;-81
2023/09/04 23:24:53;;;;;;;2.42;0.60;;;;;;;22.64;61.83;99895.53;10496545;27;96645;-80
2023/09/04 23:30:04;;;;;;;1.67;0.57;;;;;;;22.65;61.57;99897.19;10501539;27;97730;-81
2023/09/04 23:35:27;;;;;;;1.73;0.70;;;;;;;22.59;62.51;99911.22;10501405;27;96653;-81
2023/09/04 23:45:52;;;;;;;1.30;0.70;;;;;;;22.59;62.44;99916.56;10501645;27;97192;-81
2023/09/04 23:50:57;;;;;;;0.80;0.52;;;;;;;22.64;61.53;99917.81;10416237;28;96653;-80
2023/09/04 23:56:01;;;;;;;1.30;0.40;;;;;;;22.59;61.98;99916.56;10446891;27;97714;-81
